sensor_id;sensor_type;location;lat;lon;timestamp;P1;durP1;ratioP1;P2;durP2;ratioP2
6209;SDS011;3138;52.550;13.148;2023-08-21T00:01:47;19.50;;;12.03;;
6209;SDS011;3138;52.550;13.148;2023-08-21T00:04:14;21.60;;;14.47;;
6209;SDS011;3138;52.550;13.148;2023-08-21T00:06:40;19.70;;;12.93;;
6209;SDS011;3138;52.550;13.148;2023-08-21T00:09:07;15.97;;;12.53;;
6209;SDS011;3138;52.550;13.148;2023-08-21T00:11:34;16.90;;;12.30;;
6209;SDS011;3138;52.550;13.148;2023-08-21T00:14:01;22.13;;;13.37;;
6209;SDS011;3138;52.550;13.148;2023-08-21T00:16:29;16.00;;;10.77;;
6209;SDS011;3138;52.550;13.148;2023-08-21T00:18:56;32.23;;;13.53;;
6209;SDS011;3138;52.550;13.148;2023-08-21T00:21:23;17.37;;;10.30;;
6209;SDS011;3138;52.550;13.148;2023-08-21T00:23:50;16.27;;;11.40;;
6209;SDS011;3138;52.550;13.148;2023-08-21T00:26:17;20.50;;;11.13;;
6209;SDS011;3138;52.550;13.148;2023-08-21T00:28:43;15.33;;;10.20;;
6209;SDS011;3138;52.550;13.148;2023-08-21T00:31:10;14.73;;;9.47;;
6209;SDS011;3138;52.550;13.148;2023-08-21T00:33:38;18.63;;;11.17;;
6209;SDS011;3138;52.550;13.148;2023-08-21T00:36:05;13.60;;;10.97;;
6209;SDS011;3138;52.550;13.148;2023-08-21T00:38:32;30.43;;;10.63;;
6209;SDS011;3138;52.550;13.148;2023-08-21T00:40:59;16.07;;;10.90;;
6209;SDS011;3138;52.550;13.148;2023-08-21T00:43:26;14.10;;;9.93;;
6209;SDS011;3138;52.550;13.148;2023-08-21T00:45:53;14.87;;;10.43;;
6209;SDS011;3138;52.550;13.148;2023-08-21T00:48:21;14.90;;;10.03;;
6209;SDS011;3138;52.550;13.148;2023-08-21T00:50:49;13.63;;;10.33;;
6209;SDS011;3138;52.550;13.148;2023-08-21T00:53:16;14.67;;;11.30;;
6209;SDS011;3138;52.550;13.148;2023-08-21T00:55:43;18.50;;;11.47;;
6209;SDS011;3138;52.550;13.148;2023-08-21T00:58:10;23.93;;;11.43;;
6209;SDS011;3138;52.550;13.148;2023-08-21T01:00:38;14.80;;;11.83;;
6209;SDS011;3138;52.550;13.148;2023-08-21T01:03:06;21.20;;;12.20;;
6209;SDS011;3138;52.550;13.148;2023-08-21T01:05:34;12.97;;;11.07;;
6209;SDS011;3138;52.550;13.148;2023-08-21T01:08:03;18.83;;;11.57;;
6209;SDS011;3138;52.550;13.148;2023-08-21T01:10:38;19.90;;;12.60;;
6209;SDS011;3138;52.550;13.148;2023-08-21T01:13:13;21.97;;;11.83;;
6209;SDS011;3138;52.550;13.148;2023-08-21T01:15:51;19.80;;;11.90;;
6209;SDS011;3138;52.550;13.148;2023-08-21T01:18:20;17.63;;;11.73;;
6209;SDS011;3138;52.550;13.148;2023-08-21T01:20:48;19.10;;;13.00;;
6209;SDS011;3138;52.550;13.148;2023-08-21T01:23:29;21.90;;;12.67;;
6209;SDS011;3138;52.550;13.148;2023-08-21T01:25:57;15.23;;;12.30;;
6209;SDS011;3138;52.550;13.148;2023-08-21T01:28:24;14.23;;;11.93;;
6209;SDS011;3138;52.550;13.148;2023-08-21T01:30:52;21.70;;;12.40;;
6209;SDS011;3138;52.550;13.148;2023-08-21T01:33:25;20.10;;;13.00;;
6209;SDS011;3138;52.550;13.148;2023-08-21T01:35:54;15.10;;;11.30;;
6209;SDS011;3138;52.550;13.148;2023-08-21T01:38:23;17.20;;;11.83;;
6209;SDS011;3138;52.550;13.148;2023-08-21T01:40:51;17.73;;;12.60;;
6209;SDS011;3138;52.550;13.148;2023-08-21T01:43:19;17.20;;;12.97;;
6209;SDS011;3138;52.550;13.148;2023-08-21T01:45:46;18.10;;;12.53;;
6209;SDS011;3138;52.550;13.148;2023-08-21T01:48:13;20.90;;;12.30;;
6209;SDS011;3138;52.550;13.148;2023-08-21T01:50:40;13.63;;;10.60;;
6209;SDS011;3138;52.550;13.148;2023-08-21T01:53:06;12.53;;;10.77;;
6209;SDS011;3138;52.550;13.148;2023-08-21T01:55:33;18.47;;;12.17;;
6209;SDS011;3138;52.550;13.148;2023-08-21T01:58:01;16.20;;;10.80;;
6209;SDS011;3138;52.550;13.148;2023-08-21T02:00:28;14.53;;;10.87;;
6209;SDS011;3138;52.550;13.148;2023-08-21T02:02:55;14.37;;;11.87;;
6209;SDS011;3138;52.550;13.148;2023-08-21T02:05:22;38.97;;;13.23;;
6209;SDS011;3138;52.550;13.148;2023-08-21T02:07:49;17.90;;;12.47;;
6209;SDS011;3138;52.550;13.148;2023-08-21T02:10:15;19.70;;;13.50;;
6209;SDS011;3138;52.550;13.148;2023-08-21T02:12:42;20.33;;;13.03;;
6209;SDS011;3138;52.550;13.148;2023-08-21T02:15:11;15.63;;;11.63;;
6209;SDS011;3138;52.550;13.148;2023-08-21T02:17:39;13.57;;;12.17;;
6209;SDS011;3138;52.550;13.148;2023-08-21T02:20:08;18.93;;;12.17;;
6209;SDS011;3138;52.550;13.148;2023-08-21T02:22:36;21.50;;;12.03;;
6209;SDS011;3138;52.550;13.148;2023-08-21T02:25:02;19.03;;;12.93;;
6209;SDS011;3138;52.550;13.148;2023-08-21T02:27:30;28.47;;;12.00;;
6209;SDS011;3138;52.550;13.148;2023-08-21T02:29:56;16.10;;;12.07;;
6209;SDS011;3138;52.550;13.148;2023-08-21T02:32:25;19.20;;;13.83;;
6209;SDS011;3138;52.550;13.148;2023-08-21T02:34:51;26.73;;;14.07;;
6209;SDS011;3138;52.550;13.148;2023-08-21T02:37:18;34.03;;;12.80;;
6209;SDS011;3138;52.550;13.148;2023-08-21T02:39:45;30.10;;;14.83;;
6209;SDS011;3138;52.550;13.148;2023-08-21T02:42:12;21.87;;;13.67;;
6209;SDS011;3138;52.550;13.148;2023-08-21T02:44:39;22.23;;;14.40;;
6209;SDS011;3138;52.550;13.148;2023-08-21T02:47:06;25.90;;;14.00;;
6209;SDS011;3138;52.550;13.148;2023-08-21T02:49:34;18.13;;;12.77;;
6209;SDS011;3138;52.550;13.148;2023-08-21T02:52:01;25.60;;;15.83;;
6209;SDS011;3138;52.550;13.148;2023-08-21T02:54:27;19.57;;;12.80;;
6209;SDS011;3138;52.550;13.148;2023-08-21T02:56:54;21.07;;;14.20;;
6209;SDS011;3138;52.550;13.148;2023-08-21T02:59:21;19.57;;;13.30;;
6209;SDS011;3138;52.550;13.148;2023-08-21T03:01:48;21.60;;;11.77;;
6209;SDS011;3138;52.550;13.148;2023-08-21T03:04:15;14.20;;;12.33;;
6209;SDS011;3138;52.550;13.148;2023-08-21T03:06:43;17.17;;;11.53;;
6209;SDS011;3138;52.550;13.148;2023-08-21T03:09:10;17.23;;;12.07;;
6209;SDS011;3138;52.550;13.148;2023-08-21T03:11:36;18.30;;;12.97;;
6209;SDS011;3138;52.550;13.148;2023-08-21T03:14:03;19.97;;;12.40;;
6209;SDS011;3138;52.550;13.148;2023-08-21T03:16:30;15.33;;;12.10;;
6209;SDS011;3138;52.550;13.148;2023-08-21T03:18:57;18.10;;;13.93;;
6209;SDS011;3138;52.550;13.148;2023-08-21T03:21:25;17.33;;;12.50;;
6209;SDS011;3138;52.550;13.148;2023-08-21T03:23:55;16.00;;;13.00;;
6209;SDS011;3138;52.550;13.148;2023-08-21T03:26:24;20.90;;;13.07;;
6209;SDS011;3138;52.550;13.148;2023-08-21T03:28:51;14.33;;;11.67;;
6209;SDS011;3138;52.550;13.148;2023-08-21T03:31:18;20.27;;;12.60;;
6209;SDS011;3138;52.550;13.148;2023-08-21T03:33:45;12.97;;;11.50;;
6209;SDS011;3138;52.550;13.148;2023-08-21T03:36:12;20.00;;;13.53;;
6209;SDS011;3138;52.550;13.148;2023-08-21T03:38:39;26.67;;;12.30;;
6209;SDS011;3138;52.550;13.148;2023-08-21T03:41:07;21.07;;;11.83;;
6209;SDS011;3138;52.550;13.148;2023-08-21T03:43:34;18.00;;;13.87;;
6209;SDS011;3138;52.550;13.148;2023-08-21T03:46:01;16.93;;;12.40;;
6209;SDS011;3138;52.550;13.148;2023-08-21T03:48:28;16.90;;;12.50;;
6209;SDS011;3138;52.550;13.148;2023-08-21T03:50:57;16.40;;;11.47;;
6209;SDS011;3138;52.550;13.148;2023-08-21T03:53:24;16.57;;;13.87;;
6209;SDS011;3138;52.550;13.148;2023-08-21T03:55:50;14.27;;;12.63;;
6209;SDS011;3138;52.550;13.148;2023-08-21T03:58:19;18.90;;;14.70;;
6209;SDS011;3138;52.550;13.148;2023-08-21T04:00:45;17.23;;;13.30;;
6209;SDS011;3138;52.550;13.148;2023-08-21T04:03:12;44.13;;;16.80;;
6209;SDS011;3138;52.550;13.148;2023-08-21T04:05:39;21.47;;;14.90;;
6209;SDS011;3138;52.550;13.148;2023-08-21T04:08:06;24.80;;;15.90;;
6209;SDS011;3138;52.550;13.148;2023-08-21T04:10:33;21.10;;;15.20;;
6209;SDS011;3138;52.550;13.148;2023-08-21T04:13:00;24.23;;;15.10;;
6209;SDS011;3138;52.550;13.148;2023-08-21T04:15:28;19.93;;;16.17;;
6209;SDS011;3138;52.550;13.148;2023-08-21T04:17:55;19.73;;;16.00;;
6209;SDS011;3138;52.550;13.148;2023-08-21T04:20:22;21.93;;;14.80;;
6209;SDS011;3138;52.550;13.148;2023-08-21T04:22:49;40.80;;;16.07;;
6209;SDS011;3138;52.550;13.148;2023-08-21T04:25:16;27.87;;;14.83;;
6209;SDS011;3138;52.550;13.148;2023-08-21T04:27:43;19.70;;;15.50;;
6209;SDS011;3138;52.550;13.148;2023-08-21T04:30:10;26.23;;;16.50;;
6209;SDS011;3138;52.550;13.148;2023-08-21T04:32:39;24.60;;;16.40;;
6209;SDS011;3138;52.550;13.148;2023-08-21T04:35:06;43.93;;;17.80;;
6209;SDS011;3138;52.550;13.148;2023-08-21T04:37:34;20.83;;;16.20;;
6209;SDS011;3138;52.550;13.148;2023-08-21T04:40:04;20.47;;;15.53;;
6209;SDS011;3138;52.550;13.148;2023-08-21T04:42:31;22.60;;;14.80;;
6209;SDS011;3138;52.550;13.148;2023-08-21T04:44:58;22.20;;;17.03;;
6209;SDS011;3138;52.550;13.148;2023-08-21T04:47:25;22.80;;;14.33;;
6209;SDS011;3138;52.550;13.148;2023-08-21T04:49:54;20.37;;;16.10;;
6209;SDS011;3138;52.550;13.148;2023-08-21T04:52:22;18.17;;;14.13;;
6209;SDS011;3138;52.550;13.148;2023-08-21T04:54:49;24.60;;;15.23;;
6209;SDS011;3138;52.550;13.148;2023-08-21T04:57:17;22.53;;;15.20;;
6209;SDS011;3138;52.550;13.148;2023-08-21T04:59:44;26.27;;;16.07;;
6209;SDS011;3138;52.550;13.148;2023-08-21T05:02:11;20.37;;;16.20;;
6209;SDS011;3138;52.550;13.148;2023-08-21T05:04:37;36.57;;;16.40;;
6209;SDS011;3138;52.550;13.148;2023-08-21T05:07:06;21.23;;;14.00;;
6209;SDS011;3138;52.550;13.148;2023-08-21T05:09:32;23.23;;;15.47;;
6209;SDS011;3138;52.550;13.148;2023-08-21T05:11:59;26.70;;;15.40;;
6209;SDS011;3138;52.550;13.148;2023-08-21T05:14:26;26.00;;;15.70;;
6209;SDS011;3138;52.550;13.148;2023-08-21T05:16:53;24.40;;;15.47;;
6209;SDS011;3138;52.550;13.148;2023-08-21T05:19:20;34.20;;;16.90;;
6209;SDS011;3138;52.550;13.148;2023-08-21T05:21:47;20.03;;;14.70;;
6209;SDS011;3138;52.550;13.148;2023-08-21T05:24:15;17.90;;;13.43;;
6209;SDS011;3138;52.550;13.148;2023-08-21T05:26:42;22.63;;;14.97;;
6209;SDS011;3138;52.550;13.148;2023-08-21T05:29:08;28.60;;;16.60;;
6209;SDS011;3138;52.550;13.148;2023-08-21T05:31:35;23.97;;;14.67;;
6209;SDS011;3138;52.550;13.148;2023-08-21T05:34:02;17.40;;;14.57;;
6209;SDS011;3138;52.550;13.148;2023-08-21T05:36:29;23.23;;;14.13;;
6209;SDS011;3138;52.550;13.148;2023-08-21T05:38:56;20.43;;;13.93;;
6209;SDS011;3138;52.550;13.148;2023-08-21T05:41:24;27.73;;;13.87;;
6209;SDS011;3138;52.550;13.148;2023-08-21T05:43:51;21.53;;;13.20;;
6209;SDS011;3138;52.550;13.148;2023-08-21T05:46:18;23.63;;;15.20;;
6209;SDS011;3138;52.550;13.148;2023-08-21T05:48:45;23.97;;;13.47;;
6209;SDS011;3138;52.550;13.148;2023-08-21T05:51:12;20.60;;;14.23;;
6209;SDS011;3138;52.550;13.148;2023-08-21T05:53:39;17.17;;;13.50;;
6209;SDS011;3138;52.550;13.148;2023-08-21T05:56:06;18.93;;;14.23;;
6209;SDS011;3138;52.550;13.148;2023-08-21T05:58:34;21.07;;;13.70;;
6209;SDS011;3138;52.550;13.148;2023-08-21T06:01:01;20.23;;;15.10;;
6209;SDS011;3138;52.550;13.148;2023-08-21T06:03:27;16.70;;;14.10;;
6209;SDS011;3138;52.550;13.148;2023-08-21T06:05:54;22.87;;;15.70;;
6209;SDS011;3138;52.550;13.148;2023-08-21T06:08:21;19.87;;;14.00;;
6209;SDS011;3138;52.550;13.148;2023-08-21T06:10:50;21.13;;;14.53;;
6209;SDS011;3138;52.550;13.148;2023-08-21T06:13:17;26.37;;;15.43;;
6209;SDS011;3138;52.550;13.148;2023-08-21T06:15:45;19.77;;;14.83;;
6209;SDS011;3138;52.550;13.148;2023-08-21T06:18:12;23.70;;;14.27;;
6209;SDS011;3138;52.550;13.148;2023-08-21T06:20:41;17.50;;;13.10;;
6209;SDS011;3138;52.550;13.148;2023-08-21T06:23:09;19.00;;;13.10;;
6209;SDS011;3138;52.550;13.148;2023-08-21T06:25:36;22.13;;;14.10;;
6209;SDS011;3138;52.550;13.148;2023-08-21T06:28:03;26.03;;;13.83;;
6209;SDS011;3138;52.550;13.148;2023-08-21T06:30:31;18.90;;;15.20;;
6209;SDS011;3138;52.550;13.148;2023-08-21T06:32:59;17.47;;;13.03;;
6209;SDS011;3138;52.550;13.148;2023-08-21T06:35:26;20.60;;;12.53;;
6209;SDS011;3138;52.550;13.148;2023-08-21T06:37:53;17.60;;;14.10;;
6209;SDS011;3138;52.550;13.148;2023-08-21T06:40:20;14.70;;;12.10;;
6209;SDS011;3138;52.550;13.148;2023-08-21T06:42:47;16.47;;;13.00;;
6209;SDS011;3138;52.550;13.148;2023-08-21T06:45:16;32.83;;;14.10;;
6209;SDS011;3138;52.550;13.148;2023-08-21T06:47:42;18.23;;;13.40;;
6209;SDS011;3138;52.550;13.148;2023-08-21T06:50:11;21.60;;;13.57;;
6209;SDS011;3138;52.550;13.148;2023-08-21T06:52:38;15.13;;;11.40;;
6209;SDS011;3138;52.550;13.148;2023-08-21T06:55:06;14.90;;;12.70;;
6209;SDS011;3138;52.550;13.148;2023-08-21T06:57:33;18.30;;;12.30;;
6209;SDS011;3138;52.550;13.148;2023-08-21T06:59:59;25.90;;;11.37;;
6209;SDS011;3138;52.550;13.148;2023-08-21T07:02:27;16.83;;;12.20;;
6209;SDS011;3138;52.550;13.148;2023-08-21T07:04:53;24.93;;;11.90;;
6209;SDS011;3138;52.550;13.148;2023-08-21T07:07:21;16.13;;;10.70;;
6209;SDS011;3138;52.550;13.148;2023-08-21T07:09:49;12.97;;;8.77;;
6209;SDS011;3138;52.550;13.148;2023-08-21T07:12:16;13.17;;;8.70;;
6209;SDS011;3138;52.550;13.148;2023-08-21T07:14:45;15.87;;;8.10;;
6209;SDS011;3138;52.550;13.148;2023-08-21T07:17:12;12.70;;;7.50;;
6209;SDS011;3138;52.550;13.148;2023-08-21T07:19:39;15.83;;;8.10;;
6209;SDS011;3138;52.550;13.148;2023-08-21T07:22:06;14.60;;;8.43;;
6209;SDS011;3138;52.550;13.148;2023-08-21T07:24:34;12.20;;;5.80;;
6209;SDS011;3138;52.550;13.148;2023-08-21T07:27:01;8.70;;;5.60;;
6209;SDS011;3138;52.550;13.148;2023-08-21T07:29:29;11.33;;;5.53;;
6209;SDS011;3138;52.550;13.148;2023-08-21T07:31:56;11.40;;;6.37;;
6209;SDS011;3138;52.550;13.148;2023-08-21T07:34:22;13.37;;;6.50;;
6209;SDS011;3138;52.550;13.148;2023-08-21T07:36:49;8.93;;;5.93;;
6209;SDS011;3138;52.550;13.148;2023-08-21T07:39:16;19.90;;;5.40;;
6209;SDS011;3138;52.550;13.148;2023-08-21T07:41:44;8.87;;;5.17;;
6209;SDS011;3138;52.550;13.148;2023-08-21T07:44:11;9.63;;;4.53;;
6209;SDS011;3138;52.550;13.148;2023-08-21T07:46:38;6.20;;;3.70;;
6209;SDS011;3138;52.550;13.148;2023-08-21T07:49:04;14.87;;;4.17;;
6209;SDS011;3138;52.550;13.148;2023-08-21T07:51:32;7.93;;;3.23;;
6209;SDS011;3138;52.550;13.148;2023-08-21T07:53:58;5.77;;;2.67;;
6209;SDS011;3138;52.550;13.148;2023-08-21T07:56:25;7.50;;;2.87;;
6209;SDS011;3138;52.550;13.148;2023-08-21T07:58:53;4.53;;;3.07;;
6209;SDS011;3138;52.550;13.148;2023-08-21T08:01:20;6.87;;;3.40;;
6209;SDS011;3138;52.550;13.148;2023-08-21T08:03:47;11.93;;;4.00;;
6209;SDS011;3138;52.550;13.148;2023-08-21T08:06:15;4.03;;;2.30;;
6209;SDS011;3138;52.550;13.148;2023-08-21T08:08:43;3.77;;;2.30;;
6209;SDS011;3138;52.550;13.148;2023-08-21T08:11:10;4.17;;;2.43;;
6209;SDS011;3138;52.550;13.148;2023-08-21T08:13:37;4.47;;;1.80;;
6209;SDS011;3138;52.550;13.148;2023-08-21T08:16:06;5.00;;;2.00;;
6209;SDS011;3138;52.550;13.148;2023-08-21T08:18:33;7.47;;;2.17;;
6209;SDS011;3138;52.550;13.148;2023-08-21T08:20:59;3.83;;;2.40;;
6209;SDS011;3138;52.550;13.148;2023-08-21T08:23:26;7.00;;;2.40;;
6209;SDS011;3138;52.550;13.148;2023-08-21T08:25:53;2.93;;;2.10;;
6209;SDS011;3138;52.550;13.148;2023-08-21T08:28:20;3.47;;;1.60;;
6209;SDS011;3138;52.550;13.148;2023-08-21T08:30:47;9.27;;;1.97;;
6209;SDS011;3138;52.550;13.148;2023-08-21T08:33:15;7.40;;;2.03;;
6209;SDS011;3138;52.550;13.148;2023-08-21T08:35:44;3.07;;;1.93;;
6209;SDS011;3138;52.550;13.148;2023-08-21T08:38:10;5.07;;;2.03;;
6209;SDS011;3138;52.550;13.148;2023-08-21T08:40:40;3.20;;;1.43;;
6209;SDS011;3138;52.550;13.148;2023-08-21T08:43:09;2.50;;;1.60;;
6209;SDS011;3138;52.550;13.148;2023-08-21T08:45:37;3.70;;;1.53;;
6209;SDS011;3138;52.550;13.148;2023-08-21T08:48:06;6.60;;;1.10;;
6209;SDS011;3138;52.550;13.148;2023-08-21T08:50:34;5.03;;;1.50;;
6209;SDS011;3138;52.550;13.148;2023-08-21T08:53:04;14.33;;;2.30;;
6209;SDS011;3138;52.550;13.148;2023-08-21T08:55:33;2.17;;;1.20;;
6209;SDS011;3138;52.550;13.148;2023-08-21T08:58:00;3.80;;;1.63;;
6209;SDS011;3138;52.550;13.148;2023-08-21T09:00:26;6.00;;;1.77;;
6209;SDS011;3138;52.550;13.148;2023-08-21T09:02:53;7.60;;;1.90;;
6209;SDS011;3138;52.550;13.148;2023-08-21T09:05:21;2.30;;;1.00;;
6209;SDS011;3138;52.550;13.148;2023-08-21T09:07:59;6.93;;;1.80;;
6209;SDS011;3138;52.550;13.148;2023-08-21T09:10:29;4.00;;;1.80;;
6209;SDS011;3138;52.550;13.148;2023-08-21T09:12:55;2.87;;;1.03;;
6209;SDS011;3138;52.550;13.148;2023-08-21T09:15:27;4.47;;;2.00;;
6209;SDS011;3138;52.550;13.148;2023-08-21T09:17:54;3.27;;;2.10;;
6209;SDS011;3138;52.550;13.148;2023-08-21T09:20:24;4.60;;;1.80;;
6209;SDS011;3138;52.550;13.148;2023-08-21T09:22:54;5.63;;;2.57;;
6209;SDS011;3138;52.550;13.148;2023-08-21T09:25:22;4.07;;;1.63;;
6209;SDS011;3138;52.550;13.148;2023-08-21T09:27:51;8.20;;;2.10;;
6209;SDS011;3138;52.550;13.148;2023-08-21T09:30:24;13.23;;;2.17;;
6209;SDS011;3138;52.550;13.148;2023-08-21T09:32:52;3.27;;;1.73;;
6209;SDS011;3138;52.550;13.148;2023-08-21T09:35:20;7.00;;;1.90;;
6209;SDS011;3138;52.550;13.148;2023-08-21T09:37:48;5.90;;;1.90;;
6209;SDS011;3138;52.550;13.148;2023-08-21T09:40:20;7.20;;;2.00;;
6209;SDS011;3138;52.550;13.148;2023-08-21T09:42:51;5.00;;;1.70;;
6209;SDS011;3138;52.550;13.148;2023-08-21T09:45:22;5.27;;;2.40;;
6209;SDS011;3138;52.550;13.148;2023-08-21T09:47:49;5.17;;;1.60;;
6209;SDS011;3138;52.550;13.148;2023-08-21T09:50:17;2.43;;;1.63;;
6209;SDS011;3138;52.550;13.148;2023-08-21T09:52:44;3.50;;;1.60;;
6209;SDS011;3138;52.550;13.148;2023-08-21T09:55:12;8.93;;;1.80;;
6209;SDS011;3138;52.550;13.148;2023-08-21T09:57:41;11.10;;;2.30;;
6209;SDS011;3138;52.550;13.148;2023-08-21T10:00:08;11.70;;;2.60;;
6209;SDS011;3138;52.550;13.148;2023-08-21T10:02:40;2.77;;;1.80;;
6209;SDS011;3138;52.550;13.148;2023-08-21T10:05:11;8.33;;;1.97;;
6209;SDS011;3138;52.550;13.148;2023-08-21T10:07:39;7.40;;;1.73;;
6209;SDS011;3138;52.550;13.148;2023-08-21T10:10:08;5.57;;;1.60;;
6209;SDS011;3138;52.550;13.148;2023-08-21T10:12:35;7.03;;;2.13;;
6209;SDS011;3138;52.550;13.148;2023-08-21T10:15:04;3.90;;;1.47;;
6209;SDS011;3138;52.550;13.148;2023-08-21T10:17:31;3.47;;;1.40;;
6209;SDS011;3138;52.550;13.148;2023-08-21T10:20:01;4.07;;;1.43;;
6209;SDS011;3138;52.550;13.148;2023-08-21T10:22:39;8.17;;;1.80;;
6209;SDS011;3138;52.550;13.148;2023-08-21T10:25:15;2.97;;;1.50;;
6209;SDS011;3138;52.550;13.148;2023-08-21T10:27:45;5.03;;;2.00;;
6209;SDS011;3138;52.550;13.148;2023-08-21T10:30:14;3.80;;;1.87;;
6209;SDS011;3138;52.550;13.148;2023-08-21T10:32:46;6.63;;;1.43;;
6209;SDS011;3138;52.550;13.148;2023-08-21T10:35:14;2.87;;;1.43;;
6209;SDS011;3138;52.550;13.148;2023-08-21T10:40:37;10.80;;;1.67;;
6209;SDS011;3138;52.550;13.148;2023-08-21T10:43:04;5.30;;;1.20;;
6209;SDS011;3138;52.550;13.148;2023-08-21T10:46:02;8.33;;;2.13;;
6209;SDS011;3138;52.550;13.148;2023-08-21T10:48:28;3.30;;;1.20;;
6209;SDS011;3138;52.550;13.148;2023-08-21T10:50:55;4.00;;;1.70;;
6209;SDS011;3138;52.550;13.148;2023-08-21T10:53:24;9.50;;;1.80;;
6209;SDS011;3138;52.550;13.148;2023-08-21T10:55:52;7.93;;;1.70;;
6209;SDS011;3138;52.550;13.148;2023-08-21T10:58:20;3.50;;;1.67;;
6209;SDS011;3138;52.550;13.148;2023-08-21T11:00:47;7.40;;;1.70;;
6209;SDS011;3138;52.550;13.148;2023-08-21T11:03:23;4.77;;;1.47;;
6209;SDS011;3138;52.550;13.148;2023-08-21T11:05:59;6.00;;;1.30;;
6209;SDS011;3138;52.550;13.148;2023-08-21T11:08:27;1.53;;;1.20;;
6209;SDS011;3138;52.550;13.148;2023-08-21T11:10:54;8.97;;;2.00;;
6209;SDS011;3138;52.550;13.148;2023-08-21T11:13:22;3.73;;;1.20;;
6209;SDS011;3138;52.550;13.148;2023-08-21T11:15:57;3.43;;;1.37;;
6209;SDS011;3138;52.550;13.148;2023-08-21T11:18:30;4.03;;;1.60;;
6209;SDS011;3138;52.550;13.148;2023-08-21T11:21:04;3.80;;;1.73;;
6209;SDS011;3138;52.550;13.148;2023-08-21T11:23:33;6.93;;;1.80;;
6209;SDS011;3138;52.550;13.148;2023-08-21T11:26:01;9.50;;;2.00;;
6209;SDS011;3138;52.550;13.148;2023-08-21T11:28:29;4.23;;;1.10;;
6209;SDS011;3138;52.550;13.148;2023-08-21T11:30:56;4.43;;;1.40;;
6209;SDS011;3138;52.550;13.148;2023-08-21T11:33:25;5.30;;;1.70;;
6209;SDS011;3138;52.550;13.148;2023-08-21T11:35:54;7.93;;;1.80;;
6209;SDS011;3138;52.550;13.148;2023-08-21T11:38:23;3.03;;;1.50;;
6209;SDS011;3138;52.550;13.148;2023-08-21T11:40:51;7.37;;;1.50;;
6209;SDS011;3138;52.550;13.148;2023-08-21T11:43:19;3.80;;;1.40;;
6209;SDS011;3138;52.550;13.148;2023-08-21T11:45:46;2.83;;;1.70;;
6209;SDS011;3138;52.550;13.148;2023-08-21T11:48:13;2.67;;;1.57;;
6209;SDS011;3138;52.550;13.148;2023-08-21T11:50:40;6.40;;;1.23;;
6209;SDS011;3138;52.550;13.148;2023-08-21T11:53:08;5.63;;;1.50;;
6209;SDS011;3138;52.550;13.148;2023-08-21T11:55:36;3.60;;;1.80;;
6209;SDS011;3138;52.550;13.148;2023-08-21T11:58:03;6.70;;;1.50;;
6209;SDS011;3138;52.550;13.148;2023-08-21T12:00:30;2.57;;;1.40;;
6209;SDS011;3138;52.550;13.148;2023-08-21T12:02:57;12.50;;;1.80;;
6209;SDS011;3138;52.550;13.148;2023-08-21T12:05:26;8.13;;;2.60;;
6209;SDS011;3138;52.550;13.148;2023-08-21T12:07:53;7.07;;;1.83;;
6209;SDS011;3138;52.550;13.148;2023-08-21T12:10:25;7.03;;;2.20;;
6209;SDS011;3138;52.550;13.148;2023-08-21T12:12:54;9.20;;;1.70;;
6209;SDS011;3138;52.550;13.148;2023-08-21T12:15:21;2.57;;;1.97;;
6209;SDS011;3138;52.550;13.148;2023-08-21T12:17:48;6.67;;;1.57;;
6209;SDS011;3138;52.550;13.148;2023-08-21T12:20:15;5.60;;;1.83;;
6209;SDS011;3138;52.550;13.148;2023-08-21T12:22:42;8.73;;;1.83;;
6209;SDS011;3138;52.550;13.148;2023-08-21T12:25:09;4.70;;;1.80;;
6209;SDS011;3138;52.550;13.148;2023-08-21T12:27:39;4.03;;;1.57;;
6209;SDS011;3138;52.550;13.148;2023-08-21T12:30:06;7.53;;;1.90;;
6209;SDS011;3138;52.550;13.148;2023-08-21T12:32:34;5.90;;;1.63;;
6209;SDS011;3138;52.550;13.148;2023-08-21T12:35:00;5.87;;;1.40;;
6209;SDS011;3138;52.550;13.148;2023-08-21T12:37:29;4.30;;;1.27;;
6209;SDS011;3138;52.550;13.148;2023-08-21T12:39:56;12.03;;;1.80;;
6209;SDS011;3138;52.550;13.148;2023-08-21T12:42:23;5.90;;;1.30;;
6209;SDS011;3138;52.550;13.148;2023-08-21T12:44:51;6.67;;;2.60;;
6209;SDS011;3138;52.550;13.148;2023-08-21T12:47:17;11.93;;;1.80;;
6209;SDS011;3138;52.550;13.148;2023-08-21T12:49:44;8.23;;;1.37;;
6209;SDS011;3138;52.550;13.148;2023-08-21T12:52:11;2.70;;;1.37;;
6209;SDS011;3138;52.550;13.148;2023-08-21T12:54:38;2.67;;;1.30;;
6209;SDS011;3138;52.550;13.148;2023-08-21T12:57:05;6.90;;;1.67;;
6209;SDS011;3138;52.550;13.148;2023-08-21T12:59:32;6.07;;;2.00;;
6209;SDS011;3138;52.550;13.148;2023-08-21T13:02:00;2.40;;;1.60;;
6209;SDS011;3138;52.550;13.148;2023-08-21T13:04:27;6.43;;;1.37;;
6209;SDS011;3138;52.550;13.148;2023-08-21T13:06:54;7.63;;;1.63;;
6209;SDS011;3138;52.550;13.148;2023-08-21T13:09:21;3.80;;;1.43;;
6209;SDS011;3138;52.550;13.148;2023-08-21T13:11:50;7.50;;;1.50;;
6209;SDS011;3138;52.550;13.148;2023-08-21T13:14:17;7.53;;;1.27;;
6209;SDS011;3138;52.550;13.148;2023-08-21T13:16:43;7.17;;;2.07;;
6209;SDS011;3138;52.550;13.148;2023-08-21T13:19:12;3.07;;;1.10;;
6209;SDS011;3138;52.550;13.148;2023-08-21T13:21:38;4.00;;;1.37;;
6209;SDS011;3138;52.550;13.148;2023-08-21T13:24:05;5.27;;;1.60;;
6209;SDS011;3138;52.550;13.148;2023-08-21T13:26:32;8.07;;;1.57;;
6209;SDS011;3138;52.550;13.148;2023-08-21T13:28:59;6.63;;;1.90;;
6209;SDS011;3138;52.550;13.148;2023-08-21T13:31:26;10.27;;;1.67;;
6209;SDS011;3138;52.550;13.148;2023-08-21T13:33:53;0.63;;;0.60;;
6209;SDS011;3138;52.550;13.148;2023-08-21T13:36:22;3.23;;;1.07;;
6209;SDS011;3138;52.550;13.148;2023-08-21T13:38:49;3.50;;;1.40;;
6209;SDS011;3138;52.550;13.148;2023-08-21T13:41:15;3.13;;;1.07;;
6209;SDS011;3138;52.550;13.148;2023-08-21T13:43:42;2.90;;;1.27;;
6209;SDS011;3138;52.550;13.148;2023-08-21T13:46:09;7.50;;;1.13;;
6209;SDS011;3138;52.550;13.148;2023-08-21T13:48:36;5.17;;;1.33;;
6209;SDS011;3138;52.550;13.148;2023-08-21T13:51:03;2.10;;;1.17;;
6209;SDS011;3138;52.550;13.148;2023-08-21T13:53:31;11.50;;;1.60;;
6209;SDS011;3138;52.550;13.148;2023-08-21T13:55:58;6.17;;;1.50;;
6209;SDS011;3138;52.550;13.148;2023-08-21T13:58:25;7.80;;;1.00;;
6209;SDS011;3138;52.550;13.148;2023-08-21T14:00:52;5.57;;;1.70;;
6209;SDS011;3138;52.550;13.148;2023-08-21T14:03:20;9.73;;;1.00;;
6209;SDS011;3138;52.550;13.148;2023-08-21T14:05:47;4.53;;;1.80;;
6209;SDS011;3138;52.550;13.148;2023-08-21T14:08:14;2.70;;;1.03;;
6209;SDS011;3138;52.550;13.148;2023-08-21T14:10:42;3.20;;;1.00;;
6209;SDS011;3138;52.550;13.148;2023-08-21T14:13:09;3.70;;;1.60;;
6209;SDS011;3138;52.550;13.148;2023-08-21T14:15:37;4.07;;;1.07;;
6209;SDS011;3138;52.550;13.148;2023-08-21T14:18:04;3.60;;;1.30;;
6209;SDS011;3138;52.550;13.148;2023-08-21T14:20:31;7.40;;;1.53;;
6209;SDS011;3138;52.550;13.148;2023-08-21T14:22:57;5.90;;;2.13;;
6209;SDS011;3138;52.550;13.148;2023-08-21T14:25:24;12.23;;;1.83;;
6209;SDS011;3138;52.550;13.148;2023-08-21T14:27:52;2.23;;;1.13;;
6209;SDS011;3138;52.550;13.148;2023-08-21T14:30:20;7.20;;;1.40;;
6209;SDS011;3138;52.550;13.148;2023-08-21T14:32:47;3.93;;;1.23;;
6209;SDS011;3138;52.550;13.148;2023-08-21T14:35:14;2.67;;;1.10;;
6209;SDS011;3138;52.550;13.148;2023-08-21T14:37:41;1.90;;;1.13;;
6209;SDS011;3138;52.550;13.148;2023-08-21T14:40:08;5.70;;;1.50;;
6209;SDS011;3138;52.550;13.148;2023-08-21T14:42:35;6.37;;;1.37;;
6209;SDS011;3138;52.550;13.148;2023-08-21T14:45:04;4.53;;;1.33;;
6209;SDS011;3138;52.550;13.148;2023-08-21T14:47:31;6.17;;;1.60;;
6209;SDS011;3138;52.550;13.148;2023-08-21T14:49:58;6.97;;;1.73;;
6209;SDS011;3138;52.550;13.148;2023-08-21T14:52:25;5.63;;;1.40;;
6209;SDS011;3138;52.550;13.148;2023-08-21T14:54:52;8.57;;;2.20;;